Riske Creek, Canada
Current Conditions -  °F | °C
As of 8:00 AM on Thursday 27 Nov 2014 (Local Time) from CYWL Reporting Station
Moderate Fog Moderate Fog  
Wind Chill: 18°   Ceiling: 300
Heat Index: 27°   Visibility: 0.5mi
Dew Point: 27°   Wind: 8mph
Humidity: 100%   Direction: 310°NW
Pressure: 29.54"   Gusts: NA
Location:  51.97°N, 122.52°W
Report Text: CYWL 271600Z 31007KT 1/2SM FZFG VV003 M03/M03 A2954 RMK FG8 SLP042
Loading
Personal Weather Stations






























Interactive Weather Map New forecast layout! Learn more

10-Day Weather Forecast

Advertisements
Track Severe Weather on mobile